DTTJ/DJE METAR and TAF weather

Enter ICAO airport designator
Station Type Date Time Source
DTTJ METAR 2020/07/05 16:30 UTC NOAA

DTTJ 051630Z 08010KT 040V110 9999 FEW023 27/17 Q1014 NOSIG


Station Type Date Time Source
DTTJ Decoded METAR 2020/07/05 16:30 UTC NOAA

Djerba Mellita, Tunisia (DTTJ) 33-52N 010-46E 4M
Jul 05, 2020 - 12:30 PM EDT / 2020.07.05 1630 UTC
Wind: from the E (080 degrees) at 12 MPH (10 KT) (direction variable):0
Visibility: greater than 7 mile(s):0
Sky conditions: mostly clear
Temperature: 80 F (27 C)
Dew Point: 62 F (17 C)
Relative Humidity: 54%
Pressure (altimeter): 29.94 in. Hg (1014 hPa)
ob: DTTJ 051630Z 08010KT 040V110 9999 FEW023 27/17 Q1014 NOSIG
cycle: 16

Station Type Date Time Source
DTTJ TAF 2020/07/05 12:25 UTC NOAA

TAF DTTJ 051100Z 0512/0612 02010KT 9999 FEW023
BECMG 0513/0515 08010KT
BECMG 0601/0603 23004KT

Example: see airport list